Alcove, New York
Current Conditions -  °F | °C
As of 6:51 PM on Tuesday 25 Nov 2014 (Local Time) from KALB Reporting Station
Scattered Clouds Scattered Clouds  
Wind Chill:   Ceiling: Unl
Heat Index:   Visibility: 10mi
Dew Point: -4°   Wind: 7mph
Humidity: 60%   Direction: 230°SW
Pressure: 30.02"   Gusts: NA
Location:  42.47°N, 73.93°W
Report Text: KALB 252351Z 23006KT 10SM FEW200 SCT260 03/M04 A3002 RMK AO2 SLP169 T00331039 10122 20028 53022
Loading
Personal Weather Stations






























Interactive Weather Map New forecast layout! Learn more

10-Day Weather Forecast

Advertisements
Track Severe Weather on mobile